createdAt,value
2023-02-16T00:03:02.169Z,1.60
2023-02-16T00:08:04.047Z,1.60
2023-02-16T00:13:44.628Z,1.60
2023-02-16T00:18:47.322Z,1.60
2023-02-16T00:23:49.113Z,1.70
2023-02-16T00:28:54.024Z,1.70
2023-02-16T00:33:55.778Z,1.70
2023-02-16T00:38:57.517Z,1.70
2023-02-16T00:43:59.366Z,1.70
2023-02-16T00:49:01.489Z,1.70
2023-02-16T00:54:03.713Z,1.70
2023-02-16T00:59:12.069Z,1.60
2023-02-16T01:04:20.404Z,1.60
2023-02-16T01:09:40.878Z,1.70
2023-02-16T01:14:51.378Z,1.60
2023-02-16T01:19:53.292Z,1.60
2023-02-16T01:24:55.093Z,1.50
2023-02-16T01:29:56.922Z,1.50
2023-02-16T01:34:58.853Z,1.50
2023-02-16T01:40:00.621Z,1.60
2023-02-16T01:45:09.324Z,1.60
2023-02-16T01:50:16.613Z,1.60
2023-02-16T01:55:25.469Z,1.60
2023-02-16T02:00:51.166Z,1.60
2023-02-16T02:05:53.181Z,1.70
2023-02-16T02:11:02.943Z,1.60
2023-02-16T02:16:07.237Z,1.70
2023-02-16T02:21:52.003Z,1.70
2023-02-16T02:27:11.915Z,1.70
2023-02-16T02:32:16.670Z,1.60
2023-02-16T02:37:43.913Z,1.60
2023-02-16T02:43:28.244Z,1.60
2023-02-16T02:48:31.649Z,1.70
2023-02-16T02:53:40.302Z,1.70
2023-02-16T02:59:11.220Z,1.60
2023-02-16T03:04:16.678Z,1.70
2023-02-16T03:09:20.821Z,1.70
2023-02-16T03:14:25.503Z,1.60
2023-02-16T03:19:45.996Z,1.70
2023-02-16T03:25:06.666Z,1.70
2023-02-16T03:30:12.165Z,1.70
2023-02-16T03:35:14.373Z,1.70
2023-02-16T03:40:30.039Z,1.60
2023-02-16T03:45:35.182Z,1.70
2023-02-16T03:50:37.326Z,1.70
2023-02-16T03:55:42.173Z,1.60
2023-02-16T04:00:44.391Z,1.60
2023-02-16T04:05:46.264Z,1.60
2023-02-16T04:10:48.055Z,1.60
2023-02-16T04:15:50.032Z,1.60
2023-02-16T04:20:52.806Z,1.60
2023-02-16T04:25:54.558Z,1.60
2023-02-16T04:30:56.559Z,1.60
2023-02-16T04:35:58.375Z,1.60
2023-02-16T04:41:00.434Z,1.60
2023-02-16T04:46:02.289Z,1.60
2023-02-16T04:51:05.606Z,1.60
2023-02-16T04:56:12.544Z,1.60
2023-02-16T05:01:24.386Z,1.60
2023-02-16T05:06:26.201Z,1.60
2023-02-16T05:11:46.437Z,1.60
2023-02-16T05:16:48.166Z,1.60
2023-02-16T05:21:49.906Z,1.60
2023-02-16T05:26:51.730Z,1.60
2023-02-16T05:31:53.769Z,1.50
2023-02-16T05:36:55.871Z,1.60
2023-02-16T05:41:57.695Z,1.50
2023-02-16T05:46:59.630Z,1.60
2023-02-16T05:52:01.648Z,1.60
2023-02-16T05:57:03.737Z,1.70
2023-02-16T06:02:05.530Z,1.70
2023-02-16T06:07:07.405Z,1.60
2023-02-16T06:12:09.366Z,1.60
2023-02-16T06:17:11.119Z,1.70
2023-02-16T06:22:13.038Z,1.60
2023-02-16T06:27:14.965Z,1.70
2023-02-16T06:32:18.259Z,1.70
2023-02-16T06:37:20.244Z,1.70
2023-02-16T06:42:22.063Z,1.70
2023-02-16T06:47:23.859Z,1.80
2023-02-16T06:52:25.597Z,1.80
2023-02-16T06:57:27.495Z,1.70
2023-02-16T07:02:29.218Z,1.80
2023-02-16T07:07:31.412Z,1.80
2023-02-16T07:12:33.501Z,1.70
2023-02-16T07:17:35.410Z,1.70
2023-02-16T07:22:37.326Z,1.70
2023-02-16T07:27:39.250Z,1.70
2023-02-16T07:32:40.996Z,1.70
2023-02-16T07:37:42.803Z,1.70
2023-02-16T07:42:44.594Z,1.80
2023-02-16T07:47:46.505Z,1.80
2023-02-16T07:52:48.221Z,1.90
2023-02-16T07:57:54.853Z,1.90
2023-02-16T08:02:56.802Z,1.90
2023-02-16T08:07:58.741Z,1.90
2023-02-16T08:13:00.689Z,1.90
2023-02-16T08:18:02.427Z,1.90
2023-02-16T08:23:07.887Z,2.00
2023-02-16T08:28:09.702Z,2.00
2023-02-16T08:33:11.728Z,2.10
2023-02-16T08:38:13.513Z,2.00
2023-02-16T08:43:15.634Z,2.10
2023-02-16T08:48:17.867Z,2.20
2023-02-16T08:53:24.567Z,2.10
2023-02-16T08:58:29.433Z,2.20
2023-02-16T09:03:32.615Z,2.30
2023-02-16T09:08:37.511Z,2.20
2023-02-16T09:13:41.089Z,2.20
2023-02-16T09:18:44.945Z,2.30
2023-02-16T09:23:48.770Z,2.30
2023-02-16T09:28:51.380Z,2.40
2023-02-16T09:33:59.772Z,2.40
2023-02-16T09:39:02.369Z,2.40
2023-02-16T09:44:19.302Z,2.40
2023-02-16T09:49:37.929Z,2.50
2023-02-16T09:54:47.986Z,2.60
2023-02-16T10:00:12.683Z,2.50
2023-02-16T10:05:20.388Z,2.50
2023-02-16T10:10:34.152Z,2.50
2023-02-16T10:15:40.541Z,2.50
2023-02-16T10:20:47.296Z,2.40
2023-02-16T10:26:22.829Z,2.50
2023-02-16T10:31:43.406Z,2.60
2023-02-16T10:37:13.292Z,2.60
2023-02-16T10:42:29.941Z,2.60
2023-02-16T10:47:38.184Z,2.80
2023-02-16T10:52:42.500Z,2.80
2023-02-16T10:57:50.552Z,2.70
2023-02-16T11:02:53.174Z,2.70
2023-02-16T11:08:02.330Z,2.80
2023-02-16T11:13:04.586Z,2.80
2023-02-16T11:18:20.822Z,2.80
2023-02-16T11:23:28.756Z,2.90
2023-02-16T11:28:48.617Z,3.00
2023-02-16T11:34:05.832Z,3.00
2023-02-16T11:39:14.167Z,3.00
2023-02-16T11:44:57.522Z,3.10
2023-02-16T11:50:09.703Z,3.10
2023-02-16T11:55:27.071Z,3.00
2023-02-16T12:00:31.787Z,3.00
2023-02-16T12:05:42.863Z,2.90
2023-02-16T12:10:56.760Z,3.00
2023-02-16T12:15:58.738Z,3.10
2023-02-16T12:21:06.985Z,3.10
2023-02-16T12:26:28.349Z,3.20
2023-02-16T12:31:47.575Z,3.20
2023-02-16T12:37:07.935Z,3.30
2023-02-16T12:42:32.451Z,3.30
2023-02-16T12:47:52.665Z,3.30
2023-02-16T12:53:15.783Z,3.30
2023-02-16T12:58:20.976Z,3.20
2023-02-16T13:03:42.323Z,3.20
2023-02-16T13:08:53.204Z,3.20
2023-02-16T13:14:01.399Z,3.30
2023-02-16T13:19:03.457Z,3.30
2023-02-16T13:24:20.416Z,3.30
2023-02-16T13:29:37.734Z,3.20
2023-02-16T13:34:54.477Z,3.20
2023-02-16T13:40:22.105Z,3.10
2023-02-16T13:45:31.027Z,3.10
2023-02-16T13:50:34.283Z,3.10
2023-02-16T13:55:39.257Z,3.00
2023-02-16T14:00:50.691Z,2.90
2023-02-16T14:05:54.823Z,2.90
2023-02-16T14:11:04.183Z,2.90
2023-02-16T14:16:11.295Z,2.90
2023-02-16T14:21:43.002Z,2.90
2023-02-16T14:26:59.373Z,2.90
2023-02-16T14:32:13.770Z,2.80
2023-02-16T14:37:16.162Z,2.80
2023-02-16T14:42:31.987Z,2.80
2023-02-16T14:47:42.638Z,2.80
2023-02-16T14:53:17.296Z,2.80
2023-02-16T14:58:35.776Z,2.80
2023-02-16T15:03:42.080Z,2.70
2023-02-16T15:08:48.611Z,2.60
2023-02-16T15:13:53.562Z,2.60
2023-02-16T15:18:56.885Z,2.60
2023-02-16T15:24:00.723Z,2.60
2023-02-16T15:29:23.462Z,2.60
2023-02-16T15:34:36.198Z,2.60
2023-02-16T15:39:48.587Z,2.50
2023-02-16T15:44:54.579Z,2.50
2023-02-16T15:49:56.449Z,2.50
2023-02-16T15:54:59.810Z,2.50
2023-02-16T16:00:06.067Z,2.50
2023-02-16T16:05:22.099Z,2.50
2023-02-16T16:10:30.953Z,2.50
2023-02-16T16:15:41.875Z,2.50
2023-02-16T16:20:44.541Z,2.40
2023-02-16T16:25:48.762Z,2.40
2023-02-16T16:31:16.400Z,2.40
2023-02-16T16:36:18.416Z,2.50
2023-02-16T16:41:29.534Z,2.50
2023-02-16T16:46:32.834Z,2.40
2023-02-16T16:51:41.177Z,2.40
2023-02-16T16:56:42.960Z,2.40
2023-02-16T17:01:46.569Z,2.30
2023-02-16T17:06:48.412Z,2.20
2023-02-16T17:11:50.163Z,2.30
2023-02-16T17:16:53.215Z,2.30
2023-02-16T17:21:55.210Z,2.30
2023-02-16T17:26:57.057Z,2.30
2023-02-16T17:31:59.162Z,2.30
2023-02-16T17:37:03.426Z,2.30
2023-02-16T17:42:10.319Z,2.30
2023-02-16T17:47:15.947Z,2.30
2023-02-16T17:52:17.779Z,2.20
2023-02-16T17:57:19.490Z,2.20
2023-02-16T18:02:21.197Z,2.20
2023-02-16T18:07:23.123Z,2.20
2023-02-16T18:12:26.805Z,2.20
2023-02-16T18:17:30.097Z,2.20
2023-02-16T18:22:32.424Z,2.20
2023-02-16T18:27:34.200Z,2.10
2023-02-16T18:32:36.997Z,2.10
2023-02-16T18:37:39.179Z,2.10
2023-02-16T18:42:41.025Z,2.10
2023-02-16T18:47:45.284Z,2.10
2023-02-16T18:52:47.304Z,2.10
2023-02-16T18:57:49.075Z,2.10
2023-02-16T19:02:51.051Z,2.10
2023-02-16T19:07:52.796Z,2.00
2023-02-16T19:12:54.574Z,2.00
2023-02-16T19:17:56.436Z,2.00
2023-02-16T19:22:58.381Z,1.90
2023-02-16T19:28:00.146Z,2.00
2023-02-16T19:33:02.456Z,2.00
2023-02-16T19:38:04.293Z,2.00
2023-02-16T19:43:06.181Z,1.90
2023-02-16T19:48:08.072Z,2.00
2023-02-16T19:53:09.847Z,1.90
2023-02-16T19:58:11.717Z,1.90
2023-02-16T20:03:13.956Z,1.90
2023-02-16T20:08:15.708Z,1.90
2023-02-16T20:13:17.441Z,1.90
2023-02-16T20:18:19.450Z,1.90
2023-02-16T20:23:21.158Z,1.90
2023-02-16T20:28:24.256Z,1.90
2023-02-16T20:33:25.975Z,2.00
2023-02-16T20:38:27.787Z,1.90
2023-02-16T20:43:30.480Z,2.00
2023-02-16T20:48:33.293Z,1.90
2023-02-16T20:53:35.677Z,1.90
2023-02-16T20:58:38.579Z,1.90
2023-02-16T21:03:40.870Z,1.80
2023-02-16T21:08:42.938Z,1.80
2023-02-16T21:13:45.194Z,1.80
2023-02-16T21:18:47.136Z,1.90
2023-02-16T21:23:53.563Z,1.90
2023-02-16T21:28:55.358Z,1.90
2023-02-16T21:33:57.197Z,1.90
2023-02-16T21:39:01.886Z,1.90
2023-02-16T21:44:05.960Z,1.90
2023-02-16T21:49:13.321Z,1.90
2023-02-16T21:54:17.958Z,1.90
2023-02-16T21:59:22.621Z,1.80
2023-02-16T22:04:24.438Z,1.80
2023-02-16T22:09:26.250Z,1.80
2023-02-16T22:14:28.028Z,1.70
2023-02-16T22:19:29.987Z,1.60
2023-02-16T22:24:31.988Z,1.50
2023-02-16T22:29:33.791Z,1.50
2023-02-16T22:34:36.844Z,1.50
2023-02-16T22:39:38.869Z,1.50
2023-02-16T22:44:40.635Z,1.50
2023-02-16T22:49:42.740Z,1.50
2023-02-16T22:54:44.756Z,1.50
2023-02-16T22:59:46.490Z,1.50
2023-02-16T23:04:48.248Z,1.50
2023-02-16T23:09:49.968Z,1.50
2023-02-16T23:14:51.716Z,1.50
2023-02-16T23:19:53.567Z,1.40
2023-02-16T23:25:15.325Z,1.40
2023-02-16T23:30:17.383Z,1.40
2023-02-16T23:35:19.524Z,1.30
2023-02-16T23:40:21.352Z,1.30
2023-02-16T23:45:23.091Z,1.20
2023-02-16T23:50:26.447Z,1.20
2023-02-16T23:55:28.353Z,1.10
